sensor_id;sensor_type;location;lat;lon;timestamp;pressure;altitude;pressure_sealevel;temperature;humidity
26178;BME280;13924;47.670;10.310;2022-11-25T00:05:51;93430;;;1.2;100.0
26178;BME280;13924;47.670;10.310;2022-11-25T00:16:25;93440;;;1.0;100.0
26178;BME280;13924;47.670;10.310;2022-11-25T00:32:19;93460;;;0.7;100.0
26178;BME280;13924;47.670;10.310;2022-11-25T00:37:31;93510;;;0.6;100.0
26178;BME280;13924;47.670;10.310;2022-11-25T00:42:43;93520;;;0.6;100.0
26178;BME280;13924;47.670;10.310;2022-11-25T00:53:15;93490;;;0.7;100.0
26178;BME280;13924;47.670;10.310;2022-11-25T00:58:27;93460;;;0.7;100.0
26178;BME280;13924;47.670;10.310;2022-11-25T01:03:37;93450;;;0.6;100.0
26178;BME280;13924;47.670;10.310;2022-11-25T01:14:10;93460;;;0.6;100.0
26178;BME280;13924;47.670;10.310;2022-11-25T01:19:20;93490;;;0.7;100.0
26178;BME280;13924;47.670;10.310;2022-11-25T01:24:29;93520;;;0.6;100.0
26178;BME280;13924;47.670;10.310;2022-11-25T01:29:41;93560;;;0.6;100.0
26178;BME280;13924;47.670;10.310;2022-11-25T01:40:14;93580;;;0.6;100.0
26178;BME280;13924;47.670;10.310;2022-11-25T02:01:30;93570;;;0.5;100.0
26178;BME280;13924;47.670;10.310;2022-11-25T02:22:53;93580;;;0.6;100.0
26178;BME280;13924;47.670;10.310;2022-11-25T02:28:00;93570;;;0.5;100.0
26178;BME280;13924;47.670;10.310;2022-11-25T02:38:36;93590;;;0.4;100.0
26178;BME280;13924;47.670;10.310;2022-11-25T02:43:41;93620;;;0.2;100.0
26178;BME280;13924;47.670;10.310;2022-11-25T02:48:55;93630;;;0.2;100.0
26178;BME280;13924;47.670;10.310;2022-11-25T02:54:03;93620;;;0.3;100.0
26178;BME280;13924;47.670;10.310;2022-11-25T03:04:37;93650;;;0.3;100.0
26178;BME280;13924;47.670;10.310;2022-11-25T03:15:17;93690;;;0.3;100.0
26178;BME280;13924;47.670;10.310;2022-11-25T03:31:09;93690;;;0.3;100.0
26178;BME280;13924;47.670;10.310;2022-11-25T03:36:19;93640;;;0.8;100.0
26178;BME280;13924;47.670;10.310;2022-11-25T03:41:32;93570;;;0.8;100.0
26178;BME280;13924;47.670;10.310;2022-11-25T03:46:44;93530;;;0.8;100.0
26178;BME280;13924;47.670;10.310;2022-11-25T03:51:55;93510;;;0.6;100.0
26178;BME280;13924;47.670;10.310;2022-11-25T03:57:08;93550;;;0.6;100.0
26178;BME280;13924;47.670;10.310;2022-11-25T04:02:20;93570;;;0.7;100.0
26178;BME280;13924;47.670;10.310;2022-11-25T04:07:31;93590;;;0.4;100.0
26178;BME280;13924;47.670;10.310;2022-11-25T04:12:43;93610;;;0.4;100.0
26178;BME280;13924;47.670;10.310;2022-11-25T04:17:55;93620;;;0.4;100.0
26178;BME280;13924;47.670;10.310;2022-11-25T04:23:06;93630;;;0.2;100.0
26178;BME280;13924;47.670;10.310;2022-11-25T04:33:38;93660;;;0.3;100.0
26178;BME280;13924;47.670;10.310;2022-11-25T04:44:16;93660;;;0.3;100.0
26178;BME280;13924;47.670;10.310;2022-11-25T04:49:28;93650;;;0.4;100.0
26178;BME280;13924;47.670;10.310;2022-11-25T04:54:40;93620;;;0.5;100.0
26178;BME280;13924;47.670;10.310;2022-11-25T04:59:51;93600;;;0.4;100.0
26178;BME280;13924;47.670;10.310;2022-11-25T05:05:07;93600;;;0.4;100.0
26178;BME280;13924;47.670;10.310;2022-11-25T05:15:38;93540;;;0.6;100.0
26178;BME280;13924;47.670;10.310;2022-11-25T05:20:47;93490;;;0.6;100.0
26178;BME280;13924;47.670;10.310;2022-11-25T05:26:00;93460;;;0.7;100.0
26178;BME280;13924;47.670;10.310;2022-11-25T05:31:09;93410;;;0.8;100.0
26178;BME280;13924;47.670;10.310;2022-11-25T05:36:20;93310;;;1.2;100.0
26178;BME280;13924;47.670;10.310;2022-11-25T05:41:31;93260;;;1.3;100.0
26178;BME280;13924;47.670;10.310;2022-11-25T05:46:47;93260;;;1.3;100.0
26178;BME280;13924;47.670;10.310;2022-11-25T05:51:59;93270;;;0.9;100.0
26178;BME280;13924;47.670;10.310;2022-11-25T05:57:09;93300;;;0.9;100.0
26178;BME280;13924;47.670;10.310;2022-11-25T06:07:42;93330;;;0.8;100.0
26178;BME280;13924;47.670;10.310;2022-11-25T06:18:17;93360;;;0.7;100.0
26178;BME280;13924;47.670;10.310;2022-11-25T06:39:32;93360;;;0.6;100.0
26178;BME280;13924;47.670;10.310;2022-11-25T06:50:06;93340;;;0.8;100.0
26178;BME280;13924;47.670;10.310;2022-11-25T07:11:24;93340;;;0.9;100.0
26178;BME280;13924;47.670;10.310;2022-11-25T07:16:36;93320;;;1.1;100.0
26178;BME280;13924;47.670;10.310;2022-11-25T07:21:47;93310;;;1.2;100.0
26178;BME280;13924;47.670;10.310;2022-11-25T07:27:02;93310;;;1.2;100.0
26178;BME280;13924;47.670;10.310;2022-11-25T07:32:18;93310;;;1.2;100.0
26178;BME280;13924;47.670;10.310;2022-11-25T07:42:51;93290;;;2.1;100.0
26178;BME280;13924;47.670;10.310;2022-11-25T07:58:44;93300;;;2.2;100.0
26178;BME280;13924;47.670;10.310;2022-11-25T08:09:23;93320;;;2.1;100.0
26178;BME280;13924;47.670;10.310;2022-11-25T08:14:33;93320;;;2.1;100.0
26178;BME280;13924;47.670;10.310;2022-11-25T08:30:29;93310;;;2.8;100.0
26178;BME280;13924;47.670;10.310;2022-11-25T08:35:52;93310;;;2.8;100.0
26178;BME280;13924;47.670;10.310;2022-11-25T08:40:56;93340;;;2.4;100.0
26178;BME280;13924;47.670;10.310;2022-11-25T08:46:13;93340;;;2.4;100.0
26178;BME280;13924;47.670;10.310;2022-11-25T08:51:24;93350;;;2.4;100.0
26178;BME280;13924;47.670;10.310;2022-11-25T09:12:46;93350;;;2.9;100.0
26178;BME280;13924;47.670;10.310;2022-11-25T09:23:17;93340;;;4.1;100.0
26178;BME280;13924;47.670;10.310;2022-11-25T09:33:50;93340;;;5.1;100.0
26178;BME280;13924;47.670;10.310;2022-11-25T09:39:06;93340;;;5.1;100.0
26178;BME280;13924;47.670;10.310;2022-11-25T09:44:36;93330;;;6.4;100.0
26178;BME280;13924;47.670;10.310;2022-11-25T09:49:49;93350;;;7.0;100.0
26178;BME280;13924;47.670;10.310;2022-11-25T10:10:57;93350;;;6.9;100.0
26178;BME280;13924;47.670;10.310;2022-11-25T10:16:24;93350;;;7.9;100.0
26178;BME280;13924;47.670;10.310;2022-11-25T10:26:57;93350;;;9.6;100.0
26178;BME280;13924;47.670;10.310;2022-11-25T10:37:30;93350;;;9.6;100.0
26178;BME280;13924;47.670;10.310;2022-11-25T10:42:43;93350;;;9.6;100.0
26178;BME280;13924;47.670;10.310;2022-11-25T10:48:06;93340;;;8.9;100.0
26178;BME280;13924;47.670;10.310;2022-11-25T10:58:37;93350;;;11.2;100.0
26178;BME280;13924;47.670;10.310;2022-11-25T11:03:53;93330;;;12.4;100.0
26178;BME280;13924;47.670;10.310;2022-11-25T11:09:00;93340;;;12.4;100.0
26178;BME280;13924;47.670;10.310;2022-11-25T11:19:29;93340;;;10.4;100.0
26178;BME280;13924;47.670;10.310;2022-11-25T11:40:47;93320;;;9.3;100.0
26178;BME280;13924;47.670;10.310;2022-11-25T11:46:12;93320;;;9.3;100.0
26178;BME280;13924;47.670;10.310;2022-11-25T11:51:20;93310;;;9.2;100.0
26178;BME280;13924;47.670;10.310;2022-11-25T12:01:57;93300;;;9.6;100.0
26178;BME280;13924;47.670;10.310;2022-11-25T12:07:02;93310;;;10.0;100.0
26178;BME280;13924;47.670;10.310;2022-11-25T12:23:02;93310;;;10.0;100.0
26178;BME280;13924;47.670;10.310;2022-11-25T12:28:14;93310;;;9.0;100.0
26178;BME280;13924;47.670;10.310;2022-11-25T12:49:26;93300;;;8.6;100.0
26178;BME280;13924;47.670;10.310;2022-11-25T13:00:09;93300;;;8.6;100.0
26178;BME280;13924;47.670;10.310;2022-11-25T13:05:40;93300;;;8.6;100.0
26178;BME280;13924;47.670;10.310;2022-11-25T13:11:13;93300;;;8.5;100.0
26178;BME280;13924;47.670;10.310;2022-11-25T13:15:40;93320;;;8.6;100.0
26178;BME280;13924;47.670;10.310;2022-11-25T13:27:29;93330;;;8.3;100.0
26178;BME280;13924;47.670;10.310;2022-11-25T13:42:11;93330;;;8.3;100.0
26178;BME280;13924;47.670;10.310;2022-11-25T13:52:40;93370;;;7.8;100.0
26178;BME280;13924;47.670;10.310;2022-11-25T13:58:01;93380;;;7.8;100.0
26178;BME280;13924;47.670;10.310;2022-11-25T14:03:43;93380;;;7.8;100.0
26178;BME280;13924;47.670;10.310;2022-11-25T14:08:20;93410;;;7.5;100.0
26178;BME280;13924;47.670;10.310;2022-11-25T14:13:41;93420;;;7.4;100.0
26178;BME280;13924;47.670;10.310;2022-11-25T14:24:13;93440;;;7.2;100.0
26178;BME280;13924;47.670;10.310;2022-11-25T14:34:39;93450;;;7.0;100.0
26178;BME280;13924;47.670;10.310;2022-11-25T14:39:53;93470;;;6.9;100.0
26178;BME280;13924;47.670;10.310;2022-11-25T14:55:47;93470;;;6.9;100.0
26178;BME280;13924;47.670;10.310;2022-11-25T15:01:00;93500;;;6.9;100.0
26178;BME280;13924;47.670;10.310;2022-11-25T15:11:33;93500;;;6.9;100.0
26178;BME280;13924;47.670;10.310;2022-11-25T15:16:42;93560;;;6.7;100.0
26178;BME280;13924;47.670;10.310;2022-11-25T15:21:57;93630;;;6.5;100.0
26178;BME280;13924;47.670;10.310;2022-11-25T15:27:02;93750;;;6.3;100.0
26178;BME280;13924;47.670;10.310;2022-11-25T15:32:16;93850;;;6.2;100.0
26178;BME280;13924;47.670;10.310;2022-11-25T15:37:25;93950;;;6.1;100.0
26178;BME280;13924;47.670;10.310;2022-11-25T15:42:37;93990;;;6.0;100.0
26178;BME280;13924;47.670;10.310;2022-11-25T15:53:21;94060;;;5.9;100.0
26178;BME280;13924;47.670;10.310;2022-11-25T15:58:23;94070;;;5.9;100.0
26178;BME280;13924;47.670;10.310;2022-11-25T16:03:34;94110;;;5.8;100.0
26178;BME280;13924;47.670;10.310;2022-11-25T16:08:52;94140;;;5.8;100.0
26178;BME280;13924;47.670;10.310;2022-11-25T16:14:16;94150;;;5.8;100.0
26178;BME280;13924;47.670;10.310;2022-11-25T16:19:15;94170;;;5.8;100.0
26178;BME280;13924;47.670;10.310;2022-11-25T16:24:30;94190;;;5.8;100.0
26178;BME280;13924;47.670;10.310;2022-11-25T16:29:45;94190;;;5.8;100.0
26178;BME280;13924;47.670;10.310;2022-11-25T16:34:50;94200;;;5.8;100.0
26178;BME280;13924;47.670;10.310;2022-11-25T16:40:07;94200;;;5.8;100.0
26178;BME280;13924;47.670;10.310;2022-11-25T16:45:18;94170;;;5.7;100.0
26178;BME280;13924;47.670;10.310;2022-11-25T16:50:30;94170;;;5.7;100.0
26178;BME280;13924;47.670;10.310;2022-11-25T17:01:03;94120;;;5.6;100.0
26178;BME280;13924;47.670;10.310;2022-11-25T17:06:18;94100;;;5.5;100.0
26178;BME280;13924;47.670;10.310;2022-11-25T17:11:32;94140;;;5.5;100.0
26178;BME280;13924;47.670;10.310;2022-11-25T17:16:40;94180;;;5.4;100.0
26178;BME280;13924;47.670;10.310;2022-11-25T17:21:51;94210;;;5.4;100.0
26178;BME280;13924;47.670;10.310;2022-11-25T17:27:04;94250;;;5.3;100.0
26178;BME280;13924;47.670;10.310;2022-11-25T17:32:15;94280;;;5.3;100.0
26178;BME280;13924;47.670;10.310;2022-11-25T17:37:28;94300;;;5.3;100.0
26178;BME280;13924;47.670;10.310;2022-11-25T17:42:41;94320;;;5.4;100.0
26178;BME280;13924;47.670;10.310;2022-11-25T17:47:52;94340;;;5.3;100.0
26178;BME280;13924;47.670;10.310;2022-11-25T17:58:26;94360;;;5.3;100.0
26178;BME280;13924;47.670;10.310;2022-11-25T18:03:41;94360;;;5.3;100.0
26178;BME280;13924;47.670;10.310;2022-11-25T18:08:51;94380;;;5.3;100.0
26178;BME280;13924;47.670;10.310;2022-11-25T18:14:03;94390;;;5.3;100.0
26178;BME280;13924;47.670;10.310;2022-11-25T18:19:20;94390;;;5.3;100.0
26178;BME280;13924;47.670;10.310;2022-11-25T18:29:55;94390;;;5.3;100.0
26178;BME280;13924;47.670;10.310;2022-11-25T18:51:11;94430;;;5.2;100.0
26178;BME280;13924;47.670;10.310;2022-11-25T19:01:43;94450;;;5.1;100.0
26178;BME280;13924;47.670;10.310;2022-11-25T19:06:58;94450;;;5.1;100.0
26178;BME280;13924;47.670;10.310;2022-11-25T19:12:15;94480;;;5.2;100.0
26178;BME280;13924;47.670;10.310;2022-11-25T19:17:26;94480;;;5.2;100.0
26178;BME280;13924;47.670;10.310;2022-11-25T19:22:39;94490;;;5.2;100.0
26178;BME280;13924;47.670;10.310;2022-11-25T19:27:57;94490;;;5.2;100.0
26178;BME280;13924;47.670;10.310;2022-11-25T19:33:22;94510;;;5.2;100.0
26178;BME280;13924;47.670;10.310;2022-11-25T19:43:55;94510;;;5.2;100.0
26178;BME280;13924;47.670;10.310;2022-11-25T19:49:11;94530;;;5.2;100.0
26178;BME280;13924;47.670;10.310;2022-11-25T19:54:20;94510;;;5.3;100.0
26178;BME280;13924;47.670;10.310;2022-11-25T19:59:32;94480;;;5.4;100.0
26178;BME280;13924;47.670;10.310;2022-11-25T20:05:03;94480;;;5.4;100.0
26178;BME280;13924;47.670;10.310;2022-11-25T20:10:17;94480;;;5.4;100.0
26178;BME280;13924;47.670;10.310;2022-11-25T20:15:28;94480;;;5.4;100.0
26178;BME280;13924;47.670;10.310;2022-11-25T20:20:41;94520;;;5.2;100.0
26178;BME280;13924;47.670;10.310;2022-11-25T20:25:52;94550;;;5.1;100.0
26178;BME280;13924;47.670;10.310;2022-11-25T20:31:13;94570;;;5.2;100.0
26178;BME280;13924;47.670;10.310;2022-11-25T20:36:33;94570;;;5.2;100.0
26178;BME280;13924;47.670;10.310;2022-11-25T20:41:49;94570;;;5.2;100.0
26178;BME280;13924;47.670;10.310;2022-11-25T20:46:59;94580;;;5.2;100.0
26178;BME280;13924;47.670;10.310;2022-11-25T20:52:29;94580;;;5.2;100.0
26178;BME280;13924;47.670;10.310;2022-11-25T20:57:33;94580;;;5.2;100.0
26178;BME280;13924;47.670;10.310;2022-11-25T21:02:44;94600;;;5.0;100.0
26178;BME280;13924;47.670;10.310;2022-11-25T21:13:22;94620;;;5.1;100.0
26178;BME280;13924;47.670;10.310;2022-11-25T21:18:42;94620;;;5.1;100.0
26178;BME280;13924;47.670;10.310;2022-11-25T21:23:55;94620;;;5.1;100.0
26178;BME280;13924;47.670;10.310;2022-11-25T21:29:13;94600;;;5.1;100.0
26178;BME280;13924;47.670;10.310;2022-11-25T21:34:26;94600;;;5.1;100.0
26178;BME280;13924;47.670;10.310;2022-11-25T21:39:38;94600;;;5.1;100.0
26178;BME280;13924;47.670;10.310;2022-11-25T21:44:51;94630;;;5.1;100.0
26178;BME280;13924;47.670;10.310;2022-11-25T21:50:00;94660;;;5.1;100.0
26178;BME280;13924;47.670;10.310;2022-11-25T22:00:33;94680;;;5.1;100.0
26178;BME280;13924;47.670;10.310;2022-11-25T22:05:49;94680;;;5.1;100.0
26178;BME280;13924;47.670;10.310;2022-11-25T22:10:59;94700;;;5.1;100.0
26178;BME280;13924;47.670;10.310;2022-11-25T22:16:16;94700;;;5.1;100.0
26178;BME280;13924;47.670;10.310;2022-11-25T22:26:50;94710;;;4.9;100.0
26178;BME280;13924;47.670;10.310;2022-11-25T22:31:58;94720;;;4.9;100.0
26178;BME280;13924;47.670;10.310;2022-11-25T22:47:54;94710;;;4.8;100.0
26178;BME280;13924;47.670;10.310;2022-11-25T22:53:11;94710;;;4.8;100.0
26178;BME280;13924;47.670;10.310;2022-11-25T22:58:20;94720;;;4.8;100.0
26178;BME280;13924;47.670;10.310;2022-11-25T23:08:53;94730;;;4.8;100.0
26178;BME280;13924;47.670;10.310;2022-11-25T23:25:22;94730;;;4.8;100.0
26178;BME280;13924;47.670;10.310;2022-11-25T23:30:29;94720;;;4.5;100.0
26178;BME280;13924;47.670;10.310;2022-11-25T23:35:48;94720;;;4.5;100.0
26178;BME280;13924;47.670;10.310;2022-11-25T23:41:00;94720;;;4.5;100.0
26178;BME280;13924;47.670;10.310;2022-11-25T23:46:14;94740;;;4.6;100.0
26178;BME280;13924;47.670;10.310;2022-11-25T23:56:47;94740;;;4.6;100.0
